Lake Tahoe, CA

1:43 PM PST on February 28, 2015 (GMT -0800)
Lake Tahoe | Change Station
CLOSE
Current Station
Airport
Location: South Lake Tahoe,
Elevation: 6263 ft
Nearby Weather Stations
Active Advisory: Winter Weather Advisory

Elev 6263 ft 38.90 °N, 120.00 °W | Updated 10 minutes ago

Snow
Snow
32 °F
Feels Like 26 °F
N
7
Wind Variable Wind from NNE

Today
High -- | Low -- °F
--% Chance of Precip.
Yesterday
High -- | Low -- °F
Precip. -- in
6:34 AM 5:51 PM
Waxing Gibbous, 80% visible
Pressure 29.72 in
Visibility 0.5 miles
Clouds Few 600 ft
Overcast 1100 ft
Windchill 26 °F
Dew Point 26 °F
Humidity 79%
Rainfall 0.02 in
Snow Depth Not available.
UV 2 out of 12
Pollen .70 out of 12
Air Quality Not available.
Flu Activity Not available.
SPECI KTVL 282133Z AUTO 03006KT 1/2SM SN FEW006 OVC011 00/M03 A2972 RMK AO2 P0001 T00001033

More Conditions Fewer Conditions

Pressure 29.72 in
Visibility 0.5 miles
Clouds Few 600 ft
Overcast 1100 ft
Windchill 26 °F
Dew Point 26 °F
Humidity 79%
Rainfall 0.02 in
Snow Depth Not available.
UV 2 out of 12
Pollen .70 out of 12
Air Quality Not available.
Flu Activity Not available.
SPECI KTVL 282133Z AUTO 03006KT 1/2SM SN FEW006 OVC011 00/M03 A2972 RMK AO2 P0001 T00001033

More Conditions Fewer Conditions

10-Day Weather Forecast

Almanac

Astronomy

Feb. 28, 2015 Rise Set
Actual Time
Civil Twilight
Nautical Twilight
Astronomical Twilight
Moon
Length of Visible Light
Length of Day
Tomorrow will be .
, % of the Moon is Illuminated

Today's Extremes

State Highs State Lows

Community

WunderPhotos

Upload Photos

1,801,160 photos uploaded!

WunderBlogs® & News

Nearby

Air Quality

  Air Quality AQ Index Pollutant
Not available.

Snow Depth

Station Depth Elevation

Earthquake Activity

City Distance Mag. Time & Date
Minimum magnitude displayed is 2.5.

Coastal Water Temperatures

Place Temperature

Nearby Weather Stations

Winter Weather Advisory
Statement as of 9:43 AM PST on February 28, 2015

... Winter Weather Advisory remains in effect until 4 PM PST this
afternoon...

A Winter Weather Advisory for snow remains in effect until 4 PM
PST this afternoon.

* Timing: snow showers will continue through this afternoon...
focused on the North Shore of the lake to Interstate 80.

* Additional snow accumulations: 1 to 2 inches... with 2 to 4 inches
possible above 7000 feet.

* Impacts: snow will create slick and icy roads into the
afternoon. This includes Interstate 80... and highways 50...
89... 88... 431... and 267.

Precautionary/preparedness actions...

Snow is expected to pose an inconvenience to travelers. Roads
will become slick and hazardous... with snow and ice first
developing on bridges and overpasses. Motorists should slow down
and use caution. Check our website at weather.Gov/Reno or listen
to NOAA Weather Radio for updates on this situation.




Http://weather.Gov/Reno